createdAt,value
2022-11-05T00:00:43.404Z,99094.06
2022-11-05T00:03:48.672Z,99116.91
2022-11-05T00:06:53.995Z,99124.19
2022-11-05T00:09:41.969Z,99138.13
2022-11-05T00:12:47.396Z,99140.84
2022-11-05T00:15:55.625Z,99142.09
2022-11-05T00:18:43.289Z,99145.81
2022-11-05T00:21:48.882Z,99148.53
2022-11-05T00:24:54.228Z,99159.56
2022-11-05T00:27:42.289Z,99164.97
2022-11-05T00:30:30.847Z,99161.44
2022-11-05T00:33:19.945Z,99162.47
2022-11-05T00:36:09.979Z,99159.16
2022-11-05T00:38:57.512Z,99173.50
2022-11-05T00:42:05.403Z,99176.19
2022-11-05T00:45:01.164Z,99182.63
2022-11-05T00:48:06.055Z,99178.47
2022-11-05T00:50:55.301Z,99180.13
2022-11-05T00:53:42.885Z,99180.13
2022-11-05T00:56:30.450Z,99183.88
2022-11-05T00:59:18.107Z,99195.72
2022-11-05T01:02:08.436Z,99202.97
2022-11-05T01:04:55.990Z,99210.06
2022-11-05T01:07:45.168Z,99218.34
2022-11-05T01:10:32.646Z,99218.59
2022-11-05T01:13:22.764Z,99225.00
2022-11-05T01:16:14.371Z,99230.41
2022-11-05T01:19:03.552Z,99237.28
2022-11-05T01:21:51.033Z,99241.00
2022-11-05T01:24:40.029Z,99241.44
2022-11-05T01:27:27.384Z,99234.19
2022-11-05T01:30:15.639Z,99220.91
2022-11-05T01:33:06.159Z,99232.13
2022-11-05T01:35:53.784Z,99241.28
2022-11-05T01:38:41.261Z,99247.91
2022-11-05T01:41:30.327Z,99258.09
2022-11-05T01:44:56.217Z,99256.63
2022-11-05T01:48:01.075Z,99263.06
2022-11-05T01:51:00.456Z,99262.66
2022-11-05T01:53:52.762Z,99258.31
2022-11-05T01:56:47.157Z,99255.00
2022-11-05T01:59:39.889Z,99264.97
2022-11-05T02:02:28.239Z,99270.56
2022-11-05T02:05:16.486Z,99265.16
2022-11-05T02:08:04.521Z,99276.16
2022-11-05T02:10:53.006Z,99270.97
2022-11-05T02:13:44.142Z,99260.63
2022-11-05T02:16:40.836Z,99280.31
2022-11-05T02:20:09.598Z,99276.19
2022-11-05T02:24:03.552Z,99291.53
2022-11-05T02:27:11.315Z,99300.66
2022-11-05T02:30:30.984Z,99294.63
2022-11-05T02:33:36.495Z,99311.88
2022-11-05T02:36:38.581Z,99318.28
2022-11-05T02:39:43.396Z,99322.03
2022-11-05T02:42:40.293Z,99323.91
2022-11-05T02:45:41.913Z,99337.59
2022-11-05T02:48:39.613Z,99348.38
2022-11-05T02:51:36.603Z,99354.59
2022-11-05T02:54:32.210Z,99355.66
2022-11-05T02:57:22.371Z,99354.81
2022-11-05T03:00:53.586Z,99367.50
2022-11-05T03:03:44.790Z,99360.41
2022-11-05T03:07:04.979Z,99375.78
2022-11-05T03:10:39.440Z,99385.75
2022-11-05T03:13:33.597Z,99383.88
2022-11-05T03:16:31.017Z,99385.94
2022-11-05T03:19:26.728Z,99385.94
2022-11-05T03:22:20.312Z,99394.03
2022-11-05T03:25:23.055Z,99399.66
2022-11-05T03:28:12.269Z,99415.81
2022-11-05T03:31:00.786Z,99423.06
2022-11-05T03:33:51.875Z,99427.44
2022-11-05T03:36:47.322Z,99432.00
2022-11-05T03:39:40.131Z,99426.81
2022-11-05T03:42:33.541Z,99435.94
2022-11-05T03:45:27.021Z,99452.13
2022-11-05T03:48:17.921Z,99464.56
2022-11-05T03:51:13.430Z,99464.75
2022-11-05T03:54:04.196Z,99468.50
2022-11-05T03:57:02.186Z,99470.38
2022-11-05T03:59:52.334Z,99468.50
2022-11-05T04:02:40.856Z,99473.25
2022-11-05T04:05:28.598Z,99485.91
2022-11-05T04:08:34.887Z,99478.66
2022-11-05T04:11:39.987Z,99497.72
2022-11-05T04:14:27.657Z,99506.84
2022-11-05T04:17:15.346Z,99513.06
2022-11-05T04:20:20.686Z,99517.63
2022-11-05T04:23:25.764Z,99509.13
2022-11-05T04:26:14.880Z,99515.34
2022-11-05T04:29:19.832Z,99522.63
2022-11-05T04:32:07.349Z,99522.00
2022-11-05T04:34:54.989Z,99528.63
2022-11-05T04:37:42.605Z,99538.16
2022-11-05T04:40:31.130Z,99540.22
2022-11-05T04:43:21.398Z,99531.09
2022-11-05T04:46:11.263Z,99546.25
2022-11-05T04:48:59.145Z,99534.84
2022-11-05T04:51:47.008Z,99531.09
2022-11-05T04:54:37.609Z,99529.84
2022-11-05T04:57:25.903Z,99530.03
2022-11-05T05:00:15.399Z,99538.34
2022-11-05T05:03:02.768Z,99536.72
2022-11-05T05:05:54.006Z,99527.34
2022-11-05T05:08:41.843Z,99548.31
2022-11-05T05:11:29.519Z,99557.22
2022-11-05T05:14:17.253Z,99560.34
2022-11-05T05:17:06.343Z,99565.31
2022-11-05T05:20:10.554Z,99567.19
2022-11-05T05:23:00.805Z,99564.69
2022-11-05T05:25:48.795Z,99566.16
2022-11-05T05:28:41.308Z,99553.06
2022-11-05T05:31:29.190Z,99548.09
2022-11-05T05:34:18.444Z,99556.00
2022-11-05T05:37:06.191Z,99553.28
2022-11-05T05:39:55.018Z,99542.50
2022-11-05T05:42:43.543Z,99559.69
2022-11-05T05:45:31.356Z,99562.63
2022-11-05T05:48:19.355Z,99562.63
2022-11-05T05:51:13.363Z,99587.72
2022-11-05T05:54:00.915Z,99600.13
2022-11-05T05:56:48.586Z,99607.41
2022-11-05T05:59:36.227Z,99610.28
2022-11-05T06:02:24.785Z,99623.13
2022-11-05T06:05:12.380Z,99624.81
2022-11-05T06:08:01.356Z,99619.59
2022-11-05T06:10:52.889Z,99631.84
2022-11-05T06:13:40.622Z,99636.59
2022-11-05T06:16:29.001Z,99650.72
2022-11-05T06:19:16.496Z,99650.72
2022-11-05T06:22:05.411Z,99664.19
2022-11-05T06:24:54.389Z,99673.97
2022-11-05T06:27:43.593Z,99676.03
2022-11-05T06:30:31.409Z,99681.81
2022-11-05T06:33:19.048Z,99679.31
2022-11-05T06:36:08.577Z,99694.50
2022-11-05T06:38:57.864Z,99697.78
2022-11-05T06:42:12.156Z,99704.44
2022-11-05T06:44:54.573Z,99704.44
2022-11-05T06:47:42.635Z,99699.06
2022-11-05T06:50:31.121Z,99698.00
2022-11-05T06:53:18.761Z,99704.63
2022-11-05T06:56:07.959Z,99719.41
2022-11-05T06:58:56.970Z,99709.44
2022-11-05T07:01:44.693Z,99718.34
2022-11-05T07:04:33.023Z,99734.53
2022-11-05T07:07:20.280Z,99741.59
2022-11-05T07:10:12.931Z,99743.25
2022-11-05T07:13:07.859Z,99740.38
2022-11-05T07:15:57.847Z,99745.78
2022-11-05T07:18:45.170Z,99748.47
2022-11-05T07:21:33.952Z,99761.72
2022-11-05T07:24:25.007Z,99760.06
2022-11-05T07:27:12.714Z,99773.38
2022-11-05T07:30:01.221Z,99772.50
2022-11-05T07:32:52.731Z,99777.72
2022-11-05T07:35:40.572Z,99782.28
2022-11-05T07:38:28.344Z,99788.50
2022-11-05T07:41:16.078Z,99791.22
2022-11-05T07:44:04.026Z,99805.34
2022-11-05T07:46:51.879Z,99812.59
2022-11-05T07:49:41.088Z,99820.28
2022-11-05T07:52:28.603Z,99824.63
2022-11-05T07:55:17.250Z,99834.41
2022-11-05T07:58:05.594Z,99824.44
2022-11-05T08:00:53.076Z,99815.31
2022-11-05T08:03:40.792Z,99821.16
2022-11-05T08:06:29.668Z,99821.81
2022-11-05T08:09:17.060Z,99821.59
2022-11-05T08:12:05.288Z,99830.97
2022-11-05T08:14:53.006Z,99837.19
2022-11-05T08:17:42.293Z,99837.81
2022-11-05T08:20:30.211Z,99826.00
2022-11-05T08:23:19.441Z,99834.53
2022-11-05T08:26:07.238Z,99838.72
2022-11-05T08:28:54.618Z,99845.56
2022-11-05T08:31:42.227Z,99854.31
2022-11-05T08:34:30.146Z,99850.38
2022-11-05T08:37:17.800Z,99851.00
2022-11-05T08:40:08.604Z,99859.13
2022-11-05T08:42:58.912Z,99869.50
2022-11-05T08:45:46.548Z,99886.13
2022-11-05T08:48:34.282Z,99889.50
2022-11-05T08:51:22.012Z,99885.13
2022-11-05T08:54:09.846Z,99886.59
2022-11-05T08:56:58.464Z,99891.78
2022-11-05T08:59:45.822Z,99902.81
2022-11-05T09:02:36.145Z,99910.72
2022-11-05T09:05:23.919Z,99904.50
2022-11-05T09:08:14.632Z,99911.38
2022-11-05T09:11:04.865Z,99917.41
2022-11-05T09:13:53.887Z,99928.63
2022-11-05T09:16:44.606Z,99929.06
2022-11-05T09:19:35.467Z,99926.16
2022-11-05T09:22:28.389Z,99924.09
2022-11-05T09:25:16.089Z,99928.28
2022-11-05T09:28:15.955Z,99941.19
2022-11-05T09:31:08.910Z,99941.19
2022-11-05T09:33:56.287Z,99953.22
2022-11-05T09:36:44.420Z,99955.75
2022-11-05T09:39:34.438Z,99955.34
2022-11-05T09:42:26.907Z,99953.47
2022-11-05T09:45:19.984Z,99960.16
2022-11-05T09:48:16.987Z,99961.63
2022-11-05T09:51:09.778Z,99952.50
2022-11-05T09:53:59.570Z,99959.38
2022-11-05T09:56:48.244Z,99958.31
2022-11-05T09:59:45.728Z,99950.03
2022-11-05T10:02:37.093Z,99961.44
2022-11-05T10:05:27.715Z,99958.75
2022-11-05T10:08:21.726Z,99963.78
2022-11-05T10:11:15.507Z,99956.50
2022-11-05T10:14:15.767Z,99964.59
2022-11-05T10:17:11.627Z,99960.66
2022-11-05T10:20:11.912Z,99981.22
2022-11-05T10:23:10.924Z,99982.91
2022-11-05T10:26:04.528Z,99984.56
2022-11-05T10:28:53.934Z,99982.50
2022-11-05T10:31:44.665Z,99981.47
2022-11-05T10:34:36.797Z,99975.03
2022-11-05T10:37:26.039Z,99980.22
2022-11-05T10:40:49.112Z,99981.09
2022-11-05T10:43:46.190Z,99987.09
2022-11-05T10:46:40.136Z,99987.09
2022-11-05T10:49:47.362Z,99984.19
2022-11-05T10:52:39.057Z,99991.28
2022-11-05T10:55:30.986Z,99989.41
2022-11-05T10:58:23.696Z,99994.59
2022-11-05T11:01:13.575Z,99989.00
2022-11-05T11:04:17.574Z,99997.75
2022-11-05T11:07:06.049Z,99989.44
2022-11-05T11:09:54.175Z,99994.66
2022-11-05T11:12:45.490Z,99997.97
2022-11-05T11:15:35.206Z,100005.03
2022-11-05T11:18:37.398Z,100001.94
2022-11-05T11:21:32.211Z,100011.31
2022-11-05T11:24:24.013Z,100010.31
2022-11-05T11:27:16.706Z,100013.41
2022-11-05T11:30:08.710Z,100018.41
2022-11-05T11:33:04.969Z,100013.84
2022-11-05T11:35:52.746Z,100020.72
2022-11-05T11:38:41.939Z,100028.63
2022-11-05T11:41:33.910Z,100027.59
2022-11-05T11:44:27.350Z,100028.44
2022-11-05T11:47:20.375Z,100029.69
2022-11-05T11:50:30.999Z,100037.56
2022-11-05T11:53:35.428Z,100035.09
2022-11-05T11:56:23.578Z,100037.56
2022-11-05T11:59:46.741Z,100049.84
2022-11-05T12:03:12.413Z,100050.44
2022-11-05T12:06:09.514Z,100048.38
2022-11-05T12:09:07.086Z,100052.31
2022-11-05T12:12:05.420Z,100052.53
2022-11-05T12:14:59.400Z,100058.78
2022-11-05T12:17:54.187Z,100052.09
2022-11-05T12:21:02.135Z,100057.09
2022-11-05T12:24:25.162Z,100054.59
2022-11-05T12:27:26.677Z,100053.31
2022-11-05T12:30:18.095Z,100064.59
2022-11-05T12:33:40.666Z,100074.75
2022-11-05T12:36:54.819Z,100073.72
2022-11-05T12:40:00.782Z,100069.13
2022-11-05T12:43:11.765Z,100073.72
2022-11-05T12:46:25.403Z,100073.06
2022-11-05T12:49:47.589Z,100079.94
2022-11-05T12:53:04.845Z,100077.47
2022-11-05T12:55:56.587Z,100072.06
2022-11-05T12:58:48.597Z,100076.41
2022-11-05T13:01:41.255Z,100076.22
2022-11-05T13:04:38.889Z,100074.34
2022-11-05T13:07:32.498Z,100073.31
2022-11-05T13:10:31.148Z,100074.34
2022-11-05T13:13:28.377Z,100075.41
2022-11-05T13:16:24.348Z,100074.53
2022-11-05T13:19:20.179Z,100083.88
2022-11-05T13:22:23.169Z,100087.63
2022-11-05T13:25:20.148Z,100089.50
2022-11-05T13:28:29.049Z,100093.44
2022-11-05T13:31:23.447Z,100093.63
2022-11-05T13:34:13.713Z,100102.78
2022-11-05T13:37:22.540Z,100101.09
2022-11-05T13:40:14.550Z,100108.56
2022-11-05T13:43:22.905Z,100115.00
2022-11-05T13:46:45.289Z,100126.00
2022-11-05T13:50:08.260Z,100117.47
2022-11-05T13:53:42.873Z,100125.16
2022-11-05T13:56:55.597Z,100140.72
2022-11-05T14:00:07.137Z,100128.44
2022-11-05T14:02:58.128Z,100136.91
2022-11-05T14:05:53.664Z,100139.84
2022-11-05T14:08:45.255Z,100145.41
2022-11-05T14:11:44.323Z,100143.75
2022-11-05T14:14:45.294Z,100143.31
2022-11-05T14:17:57.857Z,100154.09
2022-11-05T14:21:00.997Z,100150.16
2022-11-05T14:23:55.693Z,100152.19
2022-11-05T14:26:43.489Z,100159.66
2022-11-05T14:29:41.396Z,100164.63
2022-11-05T14:32:50.311Z,100166.88
2022-11-05T14:35:39.951Z,100177.88
2022-11-05T14:38:29.636Z,100176.41
2022-11-05T14:41:20.841Z,100183.00
2022-11-05T14:44:12.275Z,100186.09
2022-11-05T14:47:03.572Z,100189.84
2022-11-05T14:50:03.017Z,100188.53
2022-11-05T14:52:54.763Z,100184.34
2022-11-05T14:55:44.808Z,100196.84
2022-11-05T14:58:36.745Z,100190.16
2022-11-05T15:01:56.139Z,100197.41
2022-11-05T15:04:45.705Z,100204.03
2022-11-05T15:07:39.881Z,100210.44
2022-11-05T15:10:32.387Z,100213.53
2022-11-05T15:13:34.205Z,100216.41
2022-11-05T15:16:27.430Z,100206.84
2022-11-05T15:19:27.295Z,100220.53
2022-11-05T15:22:30.916Z,100215.53
2022-11-05T15:25:25.614Z,100213.00
2022-11-05T15:28:22.965Z,100209.00
2022-11-05T15:31:32.293Z,100219.16
2022-11-05T15:34:24.889Z,100211.28
2022-11-05T15:37:24.942Z,100217.88
2022-11-05T15:40:26.336Z,100229.66
2022-11-05T15:43:19.646Z,100238.13
2022-11-05T15:46:15.766Z,100233.78
2022-11-05T15:49:09.074Z,100235.66
2022-11-05T15:51:57.290Z,100234.16
2022-11-05T15:54:46.026Z,100237.03
2022-11-05T15:57:40.500Z,100244.31
2022-11-05T16:00:31.477Z,100246.53
2022-11-05T16:03:29.253Z,100260.00
2022-11-05T16:06:20.167Z,100255.81
2022-11-05T16:09:08.282Z,100263.75
2022-11-05T16:12:16.227Z,100259.56
2022-11-05T16:15:25.232Z,100274.28
2022-11-05T16:18:24.189Z,100269.88
2022-11-05T16:21:17.692Z,100264.47
2022-11-05T16:24:05.349Z,100271.94
2022-11-05T16:27:02.973Z,100274.66
2022-11-05T16:29:54.201Z,100267.72
2022-11-05T16:32:43.364Z,100266.47
2022-11-05T16:35:30.796Z,100274.53
2022-11-05T16:38:19.966Z,100277.25
2022-11-05T16:41:07.912Z,100281.81
2022-11-05T16:43:57.257Z,100292.78
2022-11-05T16:46:49.252Z,100287.28
2022-11-05T16:49:38.735Z,100299.19
2022-11-05T16:52:26.200Z,100295.03
2022-11-05T16:55:14.846Z,100293.97
2022-11-05T16:58:02.446Z,100304.94
2022-11-05T17:00:53.364Z,100307.66
2022-11-05T17:03:41.015Z,100312.41
2022-11-05T17:06:30.177Z,100308.84
2022-11-05T17:09:17.609Z,100308.22
2022-11-05T17:12:07.138Z,100310.91
2022-11-05T17:14:54.771Z,100318.16
2022-11-05T17:17:44.686Z,100323.53
2022-11-05T17:20:40.659Z,100325.59
2022-11-05T17:23:32.679Z,100319.34
2022-11-05T17:26:20.342Z,100326.63
2022-11-05T17:29:08.091Z,100332.19
2022-11-05T17:31:55.985Z,100332.19
2022-11-05T17:34:43.839Z,100334.25
2022-11-05T17:37:31.731Z,100338.78
2022-11-05T17:40:24.107Z,100339.81
2022-11-05T17:43:12.599Z,100330.91
2022-11-05T17:46:04.257Z,100334.44
2022-11-05T17:48:52.638Z,100336.47
2022-11-05T17:51:40.230Z,100341.69
2022-11-05T17:54:27.913Z,100339.16
2022-11-05T17:57:21.934Z,100347.25
2022-11-05T18:00:11.629Z,100342.06
2022-11-05T18:02:59.013Z,100352.84
2022-11-05T18:05:47.037Z,100358.41
2022-11-05T18:08:35.017Z,100360.28
2022-11-05T18:11:22.680Z,100371.88
2022-11-05T18:14:12.102Z,100370.22
2022-11-05T18:17:00.436Z,100365.00
2022-11-05T18:19:48.290Z,100370.41
2022-11-05T18:22:36.082Z,100371.59
2022-11-05T18:25:23.889Z,100371.59
2022-11-05T18:28:11.968Z,100374.47
2022-11-05T18:31:01.276Z,100379.41
2022-11-05T18:33:49.913Z,100378.38
2022-11-05T18:36:43.552Z,100379.41
2022-11-05T18:39:31.238Z,100382.25
2022-11-05T18:42:19.060Z,100387.00
2022-11-05T18:45:08.870Z,100397.97
2022-11-05T18:47:57.834Z,100400.84
2022-11-05T18:50:45.192Z,100397.31
2022-11-05T18:53:32.567Z,100398.34
2022-11-05T18:56:20.527Z,100403.06
2022-11-05T18:59:35.065Z,100407.81
2022-11-05T19:02:16.321Z,100410.66
2022-11-05T19:05:28.065Z,100411.69
2022-11-05T19:08:14.289Z,100416.41
2022-11-05T19:11:08.106Z,100427.38
2022-11-05T19:13:55.637Z,100424.88
2022-11-05T19:16:43.429Z,100436.50
2022-11-05T19:19:34.041Z,100434.81
2022-11-05T19:22:23.016Z,100439.34
2022-11-05T19:25:13.500Z,100437.69
2022-11-05T19:28:02.985Z,100450.50
2022-11-05T19:30:50.546Z,100446.97
2022-11-05T19:33:38.885Z,100450.69
2022-11-05T19:36:26.953Z,100449.19
2022-11-05T19:39:16.667Z,100451.03
2022-11-05T19:42:04.832Z,100463.00
2022-11-05T19:44:52.208Z,100466.53
2022-11-05T19:47:39.842Z,100465.88
2022-11-05T19:50:27.830Z,100471.44
2022-11-05T19:53:15.326Z,100466.88
2022-11-05T19:56:08.455Z,100476.00
2022-11-05T19:58:56.704Z,100474.31
2022-11-05T20:01:44.967Z,100475.50
2022-11-05T20:04:33.123Z,100477.56
2022-11-05T20:07:21.189Z,100472.16
2022-11-05T20:10:10.123Z,100474.88
2022-11-05T20:12:59.245Z,100466.94
2022-11-05T20:15:46.794Z,100472.50
2022-11-05T20:18:34.687Z,100477.88
2022-11-05T20:21:22.878Z,100473.69
2022-11-05T20:24:12.159Z,100473.69
2022-11-05T20:26:59.897Z,100470.31
2022-11-05T20:29:52.099Z,100465.28
2022-11-05T20:32:39.600Z,100467.31
2022-11-05T20:35:27.233Z,100471.72
2022-11-05T20:38:16.868Z,100464.81
2022-11-05T20:41:09.348Z,100475.75
2022-11-05T20:43:57.169Z,100471.41
2022-11-05T20:48:04.407Z,100481.34
2022-11-05T20:50:53.711Z,100488.91
2022-11-05T20:53:41.790Z,100494.47
2022-11-05T20:56:32.360Z,100491.97
2022-11-05T20:59:21.033Z,100494.81
2022-11-05T21:02:09.071Z,100491.47
2022-11-05T21:04:56.850Z,100503.25
2022-11-05T21:07:46.148Z,100499.91
2022-11-05T21:10:33.694Z,100491.81
2022-11-05T21:13:21.566Z,100501.91
2022-11-05T21:16:15.382Z,100494.03
2022-11-05T21:19:05.269Z,100496.03
2022-11-05T21:21:53.425Z,100491.66
2022-11-05T21:24:42.599Z,100489.97
2022-11-05T21:27:29.914Z,100489.28
2022-11-05T21:30:17.550Z,100492.19
2022-11-05T21:33:06.814Z,100494.00
2022-11-05T21:35:55.194Z,100499.75
2022-11-05T21:38:43.357Z,100504.28
2022-11-05T21:41:32.074Z,100502.63
2022-11-05T21:44:19.718Z,100500.09
2022-11-05T21:47:09.988Z,100494.88
2022-11-05T21:49:57.445Z,100485.97
2022-11-05T21:53:15.574Z,100495.06
2022-11-05T21:56:25.617Z,100499.78
2022-11-05T21:59:36.031Z,100497.44
2022-11-05T22:02:28.580Z,100498.44
2022-11-05T22:05:16.009Z,100508.22
2022-11-05T22:08:03.633Z,100504.84
2022-11-05T22:10:51.286Z,100500.66
2022-11-05T22:13:39.002Z,100504.16
2022-11-05T22:16:27.864Z,100499.81
2022-11-05T22:19:15.353Z,100501.81
2022-11-05T22:22:03.268Z,100510.06
2022-11-05T22:24:50.939Z,100509.22
2022-11-05T22:27:38.610Z,100497.78
2022-11-05T22:30:27.260Z,100507.88
2022-11-05T22:33:15.960Z,100502.34
2022-11-05T22:36:05.448Z,100505.19
2022-11-05T22:38:55.320Z,100506.22
2022-11-05T22:41:47.914Z,100506.38
2022-11-05T22:44:35.403Z,100514.44
2022-11-05T22:47:23.127Z,100518.16
2022-11-05T22:50:15.305Z,100520.84
2022-11-05T22:53:03.139Z,100505.22
2022-11-05T22:55:50.802Z,100514.13
2022-11-05T22:58:38.808Z,100515.16
2022-11-05T23:01:30.338Z,100527.09
2022-11-05T23:04:20.601Z,100525.22
2022-11-05T23:07:29.072Z,100521.72
2022-11-05T23:10:34.285Z,100522.69
2022-11-05T23:13:22.489Z,100520.19
2022-11-05T23:16:27.659Z,100517.00
2022-11-05T23:19:35.969Z,100516.31
2022-11-05T23:22:45.523Z,100514.66
2022-11-05T23:25:34.408Z,100517.50
2022-11-05T23:28:22.008Z,100506.91
2022-11-05T23:31:28.337Z,100515.00
2022-11-05T23:34:15.932Z,100517.16
2022-11-05T23:37:21.205Z,100519.69
2022-11-05T23:40:16.848Z,100522.53
2022-11-05T23:43:23.860Z,100528.13
2022-11-05T23:46:28.876Z,100526.25
2022-11-05T23:49:16.562Z,100526.59
2022-11-05T23:52:04.399Z,100522.22
2022-11-05T23:54:52.240Z,100524.06
2022-11-05T23:57:41.597Z,100532.31
